sensor_id;sensor_type;location;lat;lon;timestamp;temperature;humidity
52187;DHT22;38161;53.020;6.598;2023-09-07T00:00:13;18.30;99.90
52187;DHT22;38161;53.020;6.598;2023-09-07T00:02:39;18.30;99.90
52187;DHT22;38161;53.020;6.598;2023-09-07T00:05:06;18.20;99.90
52187;DHT22;38161;53.020;6.598;2023-09-07T00:07:32;18.20;99.90
52187;DHT22;38161;53.020;6.598;2023-09-07T00:09:58;18.20;99.90
52187;DHT22;38161;53.020;6.598;2023-09-07T00:12:24;18.20;99.90
52187;DHT22;38161;53.020;6.598;2023-09-07T00:14:49;18.20;99.90
52187;DHT22;38161;53.020;6.598;2023-09-07T00:17:15;18.20;99.90
52187;DHT22;38161;53.020;6.598;2023-09-07T00:19:41;18.20;99.90
52187;DHT22;38161;53.020;6.598;2023-09-07T00:22:07;18.10;99.90
52187;DHT22;38161;53.020;6.598;2023-09-07T00:24:32;18.10;99.90
52187;DHT22;38161;53.020;6.598;2023-09-07T00:26:58;18.10;99.90
52187;DHT22;38161;53.020;6.598;2023-09-07T00:29:24;18.10;99.90
52187;DHT22;38161;53.020;6.598;2023-09-07T00:31:50;18.10;99.90
52187;DHT22;38161;53.020;6.598;2023-09-07T00:34:15;18.10;99.90
52187;DHT22;38161;53.020;6.598;2023-09-07T00:36:41;18.00;99.90
52187;DHT22;38161;53.020;6.598;2023-09-07T00:39:07;18.00;99.90
52187;DHT22;38161;53.020;6.598;2023-09-07T00:41:34;18.00;99.90
52187;DHT22;38161;53.020;6.598;2023-09-07T00:43:59;17.90;99.90
52187;DHT22;38161;53.020;6.598;2023-09-07T00:46:25;17.90;99.90
52187;DHT22;38161;53.020;6.598;2023-09-07T00:48:52;17.90;99.90
52187;DHT22;38161;53.020;6.598;2023-09-07T00:51:18;17.80;99.90
52187;DHT22;38161;53.020;6.598;2023-09-07T00:53:44;17.80;99.90
52187;DHT22;38161;53.020;6.598;2023-09-07T00:56:10;17.80;99.90
52187;DHT22;38161;53.020;6.598;2023-09-07T00:58:37;17.80;99.90
52187;DHT22;38161;53.020;6.598;2023-09-07T01:01:03;17.70;99.90
52187;DHT22;38161;53.020;6.598;2023-09-07T01:03:29;17.70;99.90
52187;DHT22;38161;53.020;6.598;2023-09-07T01:06:14;17.70;99.90
52187;DHT22;38161;53.020;6.598;2023-09-07T01:08:44;17.70;99.90
52187;DHT22;38161;53.020;6.598;2023-09-07T01:11:19;17.60;99.90
52187;DHT22;38161;53.020;6.598;2023-09-07T01:13:52;17.60;99.90
52187;DHT22;38161;53.020;6.598;2023-09-07T01:16:20;17.60;99.90
52187;DHT22;38161;53.020;6.598;2023-09-07T01:18:47;17.50;99.90
52187;DHT22;38161;53.020;6.598;2023-09-07T01:21:13;17.50;99.90
52187;DHT22;38161;53.020;6.598;2023-09-07T01:23:44;17.40;99.90
52187;DHT22;38161;53.020;6.598;2023-09-07T01:26:10;17.40;99.90
52187;DHT22;38161;53.020;6.598;2023-09-07T01:28:36;17.40;99.90
52187;DHT22;38161;53.020;6.598;2023-09-07T01:31:04;17.30;99.90
52187;DHT22;38161;53.020;6.598;2023-09-07T01:33:30;17.30;99.90
52187;DHT22;38161;53.020;6.598;2023-09-07T01:35:56;17.30;99.90
52187;DHT22;38161;53.020;6.598;2023-09-07T01:38:22;17.30;99.90
52187;DHT22;38161;53.020;6.598;2023-09-07T01:40:47;17.20;99.90
52187;DHT22;38161;53.020;6.598;2023-09-07T01:43:13;17.20;99.90
52187;DHT22;38161;53.020;6.598;2023-09-07T01:45:39;17.20;99.90
52187;DHT22;38161;53.020;6.598;2023-09-07T01:48:13;17.20;99.90
52187;DHT22;38161;53.020;6.598;2023-09-07T01:50:39;17.10;99.90
52187;DHT22;38161;53.020;6.598;2023-09-07T01:53:05;17.10;99.90
52187;DHT22;38161;53.020;6.598;2023-09-07T01:55:32;17.10;99.90
52187;DHT22;38161;53.020;6.598;2023-09-07T01:57:58;17.10;99.90
52187;DHT22;38161;53.020;6.598;2023-09-07T02:00:24;17.10;99.90
52187;DHT22;38161;53.020;6.598;2023-09-07T02:02:49;17.00;99.90
52187;DHT22;38161;53.020;6.598;2023-09-07T02:05:15;17.00;99.90
52187;DHT22;38161;53.020;6.598;2023-09-07T02:07:42;17.00;99.90
52187;DHT22;38161;53.020;6.598;2023-09-07T02:10:09;17.00;99.90
52187;DHT22;38161;53.020;6.598;2023-09-07T02:12:35;17.00;99.90
52187;DHT22;38161;53.020;6.598;2023-09-07T02:15:03;16.90;99.90
52187;DHT22;38161;53.020;6.598;2023-09-07T02:17:29;16.90;99.90
52187;DHT22;38161;53.020;6.598;2023-09-07T02:19:56;16.90;99.90
52187;DHT22;38161;53.020;6.598;2023-09-07T02:22:22;16.90;99.90
52187;DHT22;38161;53.020;6.598;2023-09-07T02:24:47;16.90;99.90
52187;DHT22;38161;53.020;6.598;2023-09-07T02:27:13;16.80;99.90
52187;DHT22;38161;53.020;6.598;2023-09-07T02:29:39;16.80;99.90
52187;DHT22;38161;53.020;6.598;2023-09-07T02:32:05;16.80;99.90
52187;DHT22;38161;53.020;6.598;2023-09-07T02:34:31;16.80;99.90
52187;DHT22;38161;53.020;6.598;2023-09-07T02:36:57;16.80;99.90
52187;DHT22;38161;53.020;6.598;2023-09-07T02:39:23;16.70;99.90
52187;DHT22;38161;53.020;6.598;2023-09-07T02:41:52;16.70;99.90
52187;DHT22;38161;53.020;6.598;2023-09-07T02:44:18;16.70;99.90
52187;DHT22;38161;53.020;6.598;2023-09-07T02:46:44;16.60;99.90
52187;DHT22;38161;53.020;6.598;2023-09-07T02:49:09;16.60;99.90
52187;DHT22;38161;53.020;6.598;2023-09-07T02:51:35;16.60;99.90
52187;DHT22;38161;53.020;6.598;2023-09-07T02:54:02;16.60;99.90
52187;DHT22;38161;53.020;6.598;2023-09-07T02:56:28;16.50;99.90
52187;DHT22;38161;53.020;6.598;2023-09-07T02:58:54;16.50;99.90
52187;DHT22;38161;53.020;6.598;2023-09-07T03:01:20;16.50;99.90
52187;DHT22;38161;53.020;6.598;2023-09-07T03:03:47;16.40;99.90
52187;DHT22;38161;53.020;6.598;2023-09-07T03:06:15;16.40;99.90
52187;DHT22;38161;53.020;6.598;2023-09-07T03:08:44;16.40;99.90
52187;DHT22;38161;53.020;6.598;2023-09-07T03:11:10;16.40;99.90
52187;DHT22;38161;53.020;6.598;2023-09-07T03:13:35;16.40;99.90
52187;DHT22;38161;53.020;6.598;2023-09-07T03:16:03;16.40;99.90
52187;DHT22;38161;53.020;6.598;2023-09-07T03:18:29;16.40;99.90
52187;DHT22;38161;53.020;6.598;2023-09-07T03:20:58;16.40;99.90
52187;DHT22;38161;53.020;6.598;2023-09-07T03:23:25;16.40;99.90
52187;DHT22;38161;53.020;6.598;2023-09-07T03:25:52;16.40;99.90
52187;DHT22;38161;53.020;6.598;2023-09-07T03:28:17;16.40;99.90
52187;DHT22;38161;53.020;6.598;2023-09-07T03:30:43;16.40;99.90
52187;DHT22;38161;53.020;6.598;2023-09-07T03:33:09;16.40;99.90
52187;DHT22;38161;53.020;6.598;2023-09-07T03:35:35;16.40;99.90
52187;DHT22;38161;53.020;6.598;2023-09-07T03:38:01;16.40;99.90
52187;DHT22;38161;53.020;6.598;2023-09-07T03:40:27;16.30;99.90
52187;DHT22;38161;53.020;6.598;2023-09-07T03:42:53;16.30;99.90
52187;DHT22;38161;53.020;6.598;2023-09-07T03:45:19;16.30;99.90
52187;DHT22;38161;53.020;6.598;2023-09-07T03:47:44;16.30;99.90
52187;DHT22;38161;53.020;6.598;2023-09-07T03:50:10;16.30;99.90
52187;DHT22;38161;53.020;6.598;2023-09-07T03:52:36;16.30;99.90
52187;DHT22;38161;53.020;6.598;2023-09-07T03:55:02;16.20;99.90
52187;DHT22;38161;53.020;6.598;2023-09-07T03:57:29;16.20;99.90
52187;DHT22;38161;53.020;6.598;2023-09-07T03:59:55;16.20;99.90
52187;DHT22;38161;53.020;6.598;2023-09-07T04:02:22;16.20;99.90
52187;DHT22;38161;53.020;6.598;2023-09-07T04:04:52;16.20;99.90
52187;DHT22;38161;53.020;6.598;2023-09-07T04:07:18;16.10;99.90
52187;DHT22;38161;53.020;6.598;2023-09-07T04:09:45;16.10;99.90
52187;DHT22;38161;53.020;6.598;2023-09-07T04:12:11;16.10;99.90
52187;DHT22;38161;53.020;6.598;2023-09-07T04:14:37;16.10;99.90
52187;DHT22;38161;53.020;6.598;2023-09-07T04:17:04;16.10;99.90
52187;DHT22;38161;53.020;6.598;2023-09-07T04:19:30;16.10;99.90
52187;DHT22;38161;53.020;6.598;2023-09-07T04:21:57;16.10;99.90
52187;DHT22;38161;53.020;6.598;2023-09-07T04:24:23;16.10;99.90
52187;DHT22;38161;53.020;6.598;2023-09-07T04:26:49;16.10;99.90
52187;DHT22;38161;53.020;6.598;2023-09-07T04:29:17;16.10;99.90
52187;DHT22;38161;53.020;6.598;2023-09-07T04:31:43;16.10;99.90
52187;DHT22;38161;53.020;6.598;2023-09-07T04:34:09;16.10;99.90
52187;DHT22;38161;53.020;6.598;2023-09-07T04:36:35;16.10;99.90
52187;DHT22;38161;53.020;6.598;2023-09-07T04:39:01;16.00;99.90
52187;DHT22;38161;53.020;6.598;2023-09-07T04:41:29;16.00;99.90
52187;DHT22;38161;53.020;6.598;2023-09-07T04:43:54;16.00;99.90
52187;DHT22;38161;53.020;6.598;2023-09-07T04:46:21;16.00;99.90
52187;DHT22;38161;53.020;6.598;2023-09-07T04:48:48;15.90;99.90
52187;DHT22;38161;53.020;6.598;2023-09-07T04:51:14;15.90;99.90
52187;DHT22;38161;53.020;6.598;2023-09-07T04:53:39;15.90;99.90
52187;DHT22;38161;53.020;6.598;2023-09-07T04:56:07;15.90;99.90
52187;DHT22;38161;53.020;6.598;2023-09-07T04:58:34;15.90;99.90
52187;DHT22;38161;53.020;6.598;2023-09-07T05:01:11;15.90;99.90
52187;DHT22;38161;53.020;6.598;2023-09-07T05:03:37;15.90;99.90
52187;DHT22;38161;53.020;6.598;2023-09-07T05:06:04;15.80;99.90
52187;DHT22;38161;53.020;6.598;2023-09-07T05:08:30;15.80;99.90
52187;DHT22;38161;53.020;6.598;2023-09-07T05:10:57;15.80;99.90
52187;DHT22;38161;53.020;6.598;2023-09-07T05:13:24;15.80;99.90
52187;DHT22;38161;53.020;6.598;2023-09-07T05:15:51;15.80;99.90
52187;DHT22;38161;53.020;6.598;2023-09-07T05:18:18;15.80;99.90
52187;DHT22;38161;53.020;6.598;2023-09-07T05:20:44;15.80;99.90
52187;DHT22;38161;53.020;6.598;2023-09-07T05:23:20;15.80;99.90
52187;DHT22;38161;53.020;6.598;2023-09-07T05:25:52;15.70;99.90
52187;DHT22;38161;53.020;6.598;2023-09-07T05:28:19;15.80;99.90
52187;DHT22;38161;53.020;6.598;2023-09-07T05:30:45;15.80;99.90
52187;DHT22;38161;53.020;6.598;2023-09-07T05:33:14;15.80;99.90
52187;DHT22;38161;53.020;6.598;2023-09-07T05:35:41;15.80;99.90
52187;DHT22;38161;53.020;6.598;2023-09-07T05:38:11;15.80;99.90
52187;DHT22;38161;53.020;6.598;2023-09-07T05:40:38;15.80;99.90
52187;DHT22;38161;53.020;6.598;2023-09-07T05:43:05;15.80;99.90
52187;DHT22;38161;53.020;6.598;2023-09-07T05:45:35;15.90;99.90
52187;DHT22;38161;53.020;6.598;2023-09-07T05:48:03;15.90;99.90
52187;DHT22;38161;53.020;6.598;2023-09-07T05:50:29;16.00;99.90
52187;DHT22;38161;53.020;6.598;2023-09-07T05:52:55;16.00;99.90
52187;DHT22;38161;53.020;6.598;2023-09-07T05:55:21;16.10;99.90
52187;DHT22;38161;53.020;6.598;2023-09-07T05:57:48;16.10;99.90
52187;DHT22;38161;53.020;6.598;2023-09-07T06:00:14;16.20;99.90
52187;DHT22;38161;53.020;6.598;2023-09-07T06:02:44;16.20;99.90
52187;DHT22;38161;53.020;6.598;2023-09-07T06:05:10;16.30;99.90
52187;DHT22;38161;53.020;6.598;2023-09-07T06:07:36;16.40;99.90
52187;DHT22;38161;53.020;6.598;2023-09-07T06:10:02;16.40;99.90
52187;DHT22;38161;53.020;6.598;2023-09-07T06:12:34;16.50;99.90
52187;DHT22;38161;53.020;6.598;2023-09-07T06:15:00;16.60;99.90
52187;DHT22;38161;53.020;6.598;2023-09-07T06:17:27;16.70;99.90
52187;DHT22;38161;53.020;6.598;2023-09-07T06:19:53;16.80;99.90
52187;DHT22;38161;53.020;6.598;2023-09-07T06:22:19;16.80;99.90
52187;DHT22;38161;53.020;6.598;2023-09-07T06:24:45;16.90;99.90
52187;DHT22;38161;53.020;6.598;2023-09-07T06:27:10;17.00;99.90
52187;DHT22;38161;53.020;6.598;2023-09-07T06:29:36;17.10;99.90
52187;DHT22;38161;53.020;6.598;2023-09-07T06:32:02;17.20;99.90
52187;DHT22;38161;53.020;6.598;2023-09-07T06:34:28;17.30;99.90
52187;DHT22;38161;53.020;6.598;2023-09-07T06:36:54;17.40;99.90
52187;DHT22;38161;53.020;6.598;2023-09-07T06:39:19;17.40;99.90
52187;DHT22;38161;53.020;6.598;2023-09-07T06:41:46;17.50;99.90
52187;DHT22;38161;53.020;6.598;2023-09-07T06:44:12;17.60;99.90
52187;DHT22;38161;53.020;6.598;2023-09-07T06:46:39;17.70;99.90
52187;DHT22;38161;53.020;6.598;2023-09-07T06:49:05;17.70;99.90
52187;DHT22;38161;53.020;6.598;2023-09-07T06:51:31;17.80;99.90
52187;DHT22;38161;53.020;6.598;2023-09-07T06:53:57;17.90;99.90
52187;DHT22;38161;53.020;6.598;2023-09-07T06:56:31;17.90;99.90
52187;DHT22;38161;53.020;6.598;2023-09-07T06:58:59;18.00;99.90
52187;DHT22;38161;53.020;6.598;2023-09-07T07:01:24;18.00;99.90
52187;DHT22;38161;53.020;6.598;2023-09-07T07:03:50;18.00;99.90
52187;DHT22;38161;53.020;6.598;2023-09-07T07:06:16;18.10;99.90
52187;DHT22;38161;53.020;6.598;2023-09-07T07:08:42;18.10;99.90
52187;DHT22;38161;53.020;6.598;2023-09-07T07:11:08;18.20;99.90
52187;DHT22;38161;53.020;6.598;2023-09-07T07:13:33;18.20;99.90
52187;DHT22;38161;53.020;6.598;2023-09-07T07:15:59;18.30;99.90
52187;DHT22;38161;53.020;6.598;2023-09-07T07:18:25;18.30;99.90
52187;DHT22;38161;53.020;6.598;2023-09-07T07:20:51;18.30;99.90
52187;DHT22;38161;53.020;6.598;2023-09-07T07:23:17;18.40;99.90
52187;DHT22;38161;53.020;6.598;2023-09-07T07:25:42;18.50;99.90
52187;DHT22;38161;53.020;6.598;2023-09-07T07:28:09;18.50;99.90
52187;DHT22;38161;53.020;6.598;2023-09-07T07:30:36;18.60;99.90
52187;DHT22;38161;53.020;6.598;2023-09-07T07:33:02;18.70;99.90
52187;DHT22;38161;53.020;6.598;2023-09-07T07:35:32;18.80;99.90
52187;DHT22;38161;53.020;6.598;2023-09-07T07:37:58;18.80;99.90
52187;DHT22;38161;53.020;6.598;2023-09-07T07:40:24;19.00;99.90
52187;DHT22;38161;53.020;6.598;2023-09-07T07:42:52;19.10;99.90
52187;DHT22;38161;53.020;6.598;2023-09-07T07:45:18;19.20;99.90
52187;DHT22;38161;53.020;6.598;2023-09-07T07:47:46;19.30;99.90
52187;DHT22;38161;53.020;6.598;2023-09-07T07:50:12;19.50;99.90
52187;DHT22;38161;53.020;6.598;2023-09-07T07:52:38;19.60;99.90
52187;DHT22;38161;53.020;6.598;2023-09-07T07:55:04;19.80;99.90
52187;DHT22;38161;53.020;6.598;2023-09-07T07:57:32;19.90;99.90
52187;DHT22;38161;53.020;6.598;2023-09-07T07:59:58;20.00;99.90
52187;DHT22;38161;53.020;6.598;2023-09-07T08:02:23;20.10;99.90
52187;DHT22;38161;53.020;6.598;2023-09-07T08:04:49;20.30;99.90
52187;DHT22;38161;53.020;6.598;2023-09-07T08:07:15;20.40;99.90
52187;DHT22;38161;53.020;6.598;2023-09-07T08:09:41;20.60;99.90
52187;DHT22;38161;53.020;6.598;2023-09-07T08:12:07;20.70;99.90
52187;DHT22;38161;53.020;6.598;2023-09-07T08:14:32;20.80;99.90
52187;DHT22;38161;53.020;6.598;2023-09-07T08:16:58;21.00;99.90
52187;DHT22;38161;53.020;6.598;2023-09-07T08:19:24;21.10;99.90
52187;DHT22;38161;53.020;6.598;2023-09-07T08:21:51;21.20;99.90
52187;DHT22;38161;53.020;6.598;2023-09-07T08:24:16;21.30;99.90
52187;DHT22;38161;53.020;6.598;2023-09-07T08:26:43;21.40;99.90
52187;DHT22;38161;53.020;6.598;2023-09-07T08:29:09;21.50;99.90
52187;DHT22;38161;53.020;6.598;2023-09-07T08:31:39;21.60;99.90
52187;DHT22;38161;53.020;6.598;2023-09-07T08:34:07;21.70;99.90
52187;DHT22;38161;53.020;6.598;2023-09-07T08:36:37;21.90;99.90
52187;DHT22;38161;53.020;6.598;2023-09-07T08:39:03;22.00;99.90
52187;DHT22;38161;53.020;6.598;2023-09-07T08:41:43;22.10;99.90
52187;DHT22;38161;53.020;6.598;2023-09-07T08:44:10;22.30;99.90
52187;DHT22;38161;53.020;6.598;2023-09-07T08:46:37;22.40;99.90
52187;DHT22;38161;53.020;6.598;2023-09-07T08:49:03;22.50;99.90
52187;DHT22;38161;53.020;6.598;2023-09-07T08:51:31;22.60;99.90
52187;DHT22;38161;53.020;6.598;2023-09-07T08:54:01;22.70;99.90
52187;DHT22;38161;53.020;6.598;2023-09-07T08:56:28;22.90;99.90
52187;DHT22;38161;53.020;6.598;2023-09-07T08:58:54;23.00;99.90
52187;DHT22;38161;53.020;6.598;2023-09-07T09:01:20;23.10;99.90
52187;DHT22;38161;53.020;6.598;2023-09-07T09:03:49;23.10;99.90
52187;DHT22;38161;53.020;6.598;2023-09-07T09:06:20;23.20;99.90
52187;DHT22;38161;53.020;6.598;2023-09-07T09:08:50;23.20;99.90
52187;DHT22;38161;53.020;6.598;2023-09-07T09:11:17;23.40;99.90
52187;DHT22;38161;53.020;6.598;2023-09-07T09:13:44;23.40;99.90
52187;DHT22;38161;53.020;6.598;2023-09-07T09:16:10;23.50;99.90
52187;DHT22;38161;53.020;6.598;2023-09-07T09:18:37;23.70;99.90
52187;DHT22;38161;53.020;6.598;2023-09-07T09:21:03;23.80;99.90
52187;DHT22;38161;53.020;6.598;2023-09-07T09:23:34;23.90;99.90
52187;DHT22;38161;53.020;6.598;2023-09-07T09:26:04;24.10;99.90
52187;DHT22;38161;53.020;6.598;2023-09-07T09:28:34;24.10;99.90
52187;DHT22;38161;53.020;6.598;2023-09-07T09:31:02;24.10;99.90
52187;DHT22;38161;53.020;6.598;2023-09-07T09:33:31;24.20;99.90
52187;DHT22;38161;53.020;6.598;2023-09-07T09:35:57;24.30;99.90
52187;DHT22;38161;53.020;6.598;2023-09-07T09:38:23;24.30;99.90
52187;DHT22;38161;53.020;6.598;2023-09-07T09:40:49;24.40;99.90
52187;DHT22;38161;53.020;6.598;2023-09-07T09:43:15;24.50;99.90
52187;DHT22;38161;53.020;6.598;2023-09-07T09:45:41;24.50;99.90
52187;DHT22;38161;53.020;6.598;2023-09-07T09:48:08;24.60;99.90
52187;DHT22;38161;53.020;6.598;2023-09-07T09:50:35;24.70;99.90
52187;DHT22;38161;53.020;6.598;2023-09-07T09:53:05;24.70;99.90
52187;DHT22;38161;53.020;6.598;2023-09-07T09:55:34;24.90;99.90
52187;DHT22;38161;53.020;6.598;2023-09-07T09:58:01;24.90;99.90
52187;DHT22;38161;53.020;6.598;2023-09-07T10:00:30;25.00;99.90
52187;DHT22;38161;53.020;6.598;2023-09-07T10:03:04;25.00;99.90
52187;DHT22;38161;53.020;6.598;2023-09-07T10:05:31;25.20;99.90
52187;DHT22;38161;53.020;6.598;2023-09-07T10:08:09;25.30;99.90
52187;DHT22;38161;53.020;6.598;2023-09-07T10:10:36;25.40;99.90
52187;DHT22;38161;53.020;6.598;2023-09-07T10:13:03;25.50;99.90
52187;DHT22;38161;53.020;6.598;2023-09-07T10:15:29;25.50;99.90
52187;DHT22;38161;53.020;6.598;2023-09-07T10:18:09;25.70;99.90
52187;DHT22;38161;53.020;6.598;2023-09-07T10:20:58;25.90;99.90
52187;DHT22;38161;53.020;6.598;2023-09-07T10:23:51;26.00;99.90
52187;DHT22;38161;53.020;6.598;2023-09-07T10:26:18;26.10;99.90
52187;DHT22;38161;53.020;6.598;2023-09-07T10:28:47;26.20;99.90
52187;DHT22;38161;53.020;6.598;2023-09-07T10:31:19;26.20;99.90
52187;DHT22;38161;53.020;6.598;2023-09-07T10:33:46;26.30;99.90
52187;DHT22;38161;53.020;6.598;2023-09-07T10:36:25;26.30;99.90
52187;DHT22;38161;53.020;6.598;2023-09-07T10:38:53;26.30;99.90
52187;DHT22;38161;53.020;6.598;2023-09-07T10:41:19;26.30;99.90
52187;DHT22;38161;53.020;6.598;2023-09-07T10:43:51;26.40;99.90
52187;DHT22;38161;53.020;6.598;2023-09-07T10:46:21;26.50;99.90
52187;DHT22;38161;53.020;6.598;2023-09-07T10:48:51;26.50;99.90
52187;DHT22;38161;53.020;6.598;2023-09-07T10:51:18;26.60;99.90
52187;DHT22;38161;53.020;6.598;2023-09-07T10:53:45;26.60;99.90
52187;DHT22;38161;53.020;6.598;2023-09-07T10:56:11;26.70;99.90
52187;DHT22;38161;53.020;6.598;2023-09-07T10:58:37;26.70;99.90
52187;DHT22;38161;53.020;6.598;2023-09-07T11:01:09;26.80;99.90
52187;DHT22;38161;53.020;6.598;2023-09-07T11:03:38;26.80;99.90
52187;DHT22;38161;53.020;6.598;2023-09-07T11:08:34;26.90;99.90
52187;DHT22;38161;53.020;6.598;2023-09-07T11:11:01;26.90;99.90
52187;DHT22;38161;53.020;6.598;2023-09-07T11:13:28;27.00;99.90
52187;DHT22;38161;53.020;6.598;2023-09-07T11:15:56;27.00;99.90
52187;DHT22;38161;53.020;6.598;2023-09-07T11:18:23;27.10;99.90
52187;DHT22;38161;53.020;6.598;2023-09-07T11:20:50;27.00;99.90
52187;DHT22;38161;53.020;6.598;2023-09-07T11:23:21;27.10;99.90
52187;DHT22;38161;53.020;6.598;2023-09-07T11:25:52;27.10;99.90
52187;DHT22;38161;53.020;6.598;2023-09-07T11:28:30;27.10;99.90
52187;DHT22;38161;53.020;6.598;2023-09-07T11:30:58;27.20;99.90
52187;DHT22;38161;53.020;6.598;2023-09-07T11:33:24;27.20;99.90
52187;DHT22;38161;53.020;6.598;2023-09-07T11:35:52;27.20;99.90
52187;DHT22;38161;53.020;6.598;2023-09-07T11:38:20;27.30;99.90
52187;DHT22;38161;53.020;6.598;2023-09-07T11:40:46;27.40;99.90
52187;DHT22;38161;53.020;6.598;2023-09-07T11:43:13;27.40;99.90
52187;DHT22;38161;53.020;6.598;2023-09-07T11:45:40;27.40;99.90
52187;DHT22;38161;53.020;6.598;2023-09-07T11:48:06;27.50;99.90
52187;DHT22;38161;53.020;6.598;2023-09-07T11:50:35;27.50;99.90
52187;DHT22;38161;53.020;6.598;2023-09-07T11:53:03;27.50;99.90
52187;DHT22;38161;53.020;6.598;2023-09-07T11:55:29;27.60;99.90
52187;DHT22;38161;53.020;6.598;2023-09-07T11:57:55;27.60;99.90
52187;DHT22;38161;53.020;6.598;2023-09-07T12:00:22;27.70;99.90
52187;DHT22;38161;53.020;6.598;2023-09-07T12:02:48;27.70;99.90
52187;DHT22;38161;53.020;6.598;2023-09-07T12:05:14;27.70;99.90
52187;DHT22;38161;53.020;6.598;2023-09-07T12:07:42;27.70;99.90
52187;DHT22;38161;53.020;6.598;2023-09-07T12:10:11;27.70;99.90
52187;DHT22;38161;53.020;6.598;2023-09-07T12:12:39;27.80;99.90
52187;DHT22;38161;53.020;6.598;2023-09-07T12:15:06;27.80;99.90
52187;DHT22;38161;53.020;6.598;2023-09-07T12:17:32;27.80;99.90
52187;DHT22;38161;53.020;6.598;2023-09-07T12:19:59;27.90;99.90
52187;DHT22;38161;53.020;6.598;2023-09-07T12:22:26;27.90;99.90
52187;DHT22;38161;53.020;6.598;2023-09-07T12:24:52;27.90;99.90
52187;DHT22;38161;53.020;6.598;2023-09-07T12:27:17;27.90;99.90
52187;DHT22;38161;53.020;6.598;2023-09-07T12:29:44;27.90;99.90
52187;DHT22;38161;53.020;6.598;2023-09-07T12:32:11;28.00;99.90
52187;DHT22;38161;53.020;6.598;2023-09-07T12:34:36;28.00;99.90
52187;DHT22;38161;53.020;6.598;2023-09-07T12:37:02;28.00;99.90
52187;DHT22;38161;53.020;6.598;2023-09-07T12:39:32;28.10;99.90
52187;DHT22;38161;53.020;6.598;2023-09-07T12:41:57;28.00;99.90
52187;DHT22;38161;53.020;6.598;2023-09-07T12:44:23;28.10;99.90
52187;DHT22;38161;53.020;6.598;2023-09-07T12:46:49;28.10;99.90
52187;DHT22;38161;53.020;6.598;2023-09-07T12:49:15;28.10;99.90
52187;DHT22;38161;53.020;6.598;2023-09-07T12:51:46;28.20;99.90
52187;DHT22;38161;53.020;6.598;2023-09-07T12:54:12;28.20;99.90
52187;DHT22;38161;53.020;6.598;2023-09-07T12:56:38;28.20;99.90
52187;DHT22;38161;53.020;6.598;2023-09-07T12:59:04;28.20;99.90
52187;DHT22;38161;53.020;6.598;2023-09-07T13:01:30;28.30;99.90
52187;DHT22;38161;53.020;6.598;2023-09-07T13:03:56;28.30;99.90
52187;DHT22;38161;53.020;6.598;2023-09-07T13:06:22;28.30;99.90
52187;DHT22;38161;53.020;6.598;2023-09-07T13:08:48;28.30;99.90
52187;DHT22;38161;53.020;6.598;2023-09-07T13:11:14;28.20;99.90
52187;DHT22;38161;53.020;6.598;2023-09-07T13:13:39;28.20;99.90
52187;DHT22;38161;53.020;6.598;2023-09-07T13:16:05;28.20;99.90
52187;DHT22;38161;53.020;6.598;2023-09-07T13:18:31;28.20;99.90
52187;DHT22;38161;53.020;6.598;2023-09-07T13:20:57;28.20;99.90
52187;DHT22;38161;53.020;6.598;2023-09-07T13:23:29;28.20;99.90
52187;DHT22;38161;53.020;6.598;2023-09-07T13:25:56;28.20;99.90
52187;DHT22;38161;53.020;6.598;2023-09-07T13:28:22;28.20;99.90
52187;DHT22;38161;53.020;6.598;2023-09-07T13:30:50;28.20;99.90
52187;DHT22;38161;53.020;6.598;2023-09-07T13:33:16;28.10;99.90
52187;DHT22;38161;53.020;6.598;2023-09-07T13:35:41;28.10;99.90
52187;DHT22;38161;53.020;6.598;2023-09-07T13:38:07;28.10;99.90
52187;DHT22;38161;53.020;6.598;2023-09-07T13:40:33;28.10;99.90
52187;DHT22;38161;53.020;6.598;2023-09-07T13:42:59;28.10;99.90
52187;DHT22;38161;53.020;6.598;2023-09-07T13:45:25;28.00;99.90
52187;DHT22;38161;53.020;6.598;2023-09-07T13:47:50;28.00;99.90
52187;DHT22;38161;53.020;6.598;2023-09-07T13:50:16;28.00;99.90
52187;DHT22;38161;53.020;6.598;2023-09-07T13:52:42;28.00;99.90
52187;DHT22;38161;53.020;6.598;2023-09-07T13:55:08;27.90;99.90
52187;DHT22;38161;53.020;6.598;2023-09-07T13:57:34;27.90;99.90
52187;DHT22;38161;53.020;6.598;2023-09-07T14:00:00;27.90;99.90
52187;DHT22;38161;53.020;6.598;2023-09-07T14:02:26;27.90;99.90
52187;DHT22;38161;53.020;6.598;2023-09-07T14:04:52;27.90;99.90
52187;DHT22;38161;53.020;6.598;2023-09-07T14:07:18;27.90;99.90
52187;DHT22;38161;53.020;6.598;2023-09-07T14:09:44;27.80;99.90
52187;DHT22;38161;53.020;6.598;2023-09-07T14:12:10;27.80;99.90
52187;DHT22;38161;53.020;6.598;2023-09-07T14:14:37;27.80;99.90
52187;DHT22;38161;53.020;6.598;2023-09-07T14:17:03;27.80;99.90
52187;DHT22;38161;53.020;6.598;2023-09-07T14:19:29;27.70;99.90
52187;DHT22;38161;53.020;6.598;2023-09-07T14:21:57;27.70;99.90
52187;DHT22;38161;53.020;6.598;2023-09-07T14:24:24;27.70;99.90
52187;DHT22;38161;53.020;6.598;2023-09-07T14:26:50;27.60;99.90
52187;DHT22;38161;53.020;6.598;2023-09-07T14:29:16;27.70;99.90
52187;DHT22;38161;53.020;6.598;2023-09-07T14:31:42;27.70;99.90
52187;DHT22;38161;53.020;6.598;2023-09-07T14:34:13;27.60;99.90
52187;DHT22;38161;53.020;6.598;2023-09-07T14:36:39;27.60;99.90
52187;DHT22;38161;53.020;6.598;2023-09-07T14:39:08;27.50;99.90
52187;DHT22;38161;53.020;6.598;2023-09-07T14:41:37;27.50;99.90
52187;DHT22;38161;53.020;6.598;2023-09-07T14:44:03;27.50;99.90
52187;DHT22;38161;53.020;6.598;2023-09-07T14:46:29;27.50;99.90
52187;DHT22;38161;53.020;6.598;2023-09-07T14:48:55;27.50;99.90
52187;DHT22;38161;53.020;6.598;2023-09-07T14:51:23;27.50;99.90
52187;DHT22;38161;53.020;6.598;2023-09-07T14:53:49;27.50;99.90
52187;DHT22;38161;53.020;6.598;2023-09-07T14:56:14;27.50;99.90
52187;DHT22;38161;53.020;6.598;2023-09-07T14:58:40;27.50;99.90
52187;DHT22;38161;53.020;6.598;2023-09-07T15:01:06;27.40;99.90
52187;DHT22;38161;53.020;6.598;2023-09-07T15:03:33;27.40;99.90
52187;DHT22;38161;53.020;6.598;2023-09-07T15:05:59;27.40;99.90
52187;DHT22;38161;53.020;6.598;2023-09-07T15:08:25;27.40;99.90
52187;DHT22;38161;53.020;6.598;2023-09-07T15:10:51;27.30;99.90
52187;DHT22;38161;53.020;6.598;2023-09-07T15:13:17;27.30;99.90
52187;DHT22;38161;53.020;6.598;2023-09-07T15:15:42;27.20;99.90
52187;DHT22;38161;53.020;6.598;2023-09-07T15:18:08;27.20;99.90
52187;DHT22;38161;53.020;6.598;2023-09-07T15:20:35;27.20;99.90
52187;DHT22;38161;53.020;6.598;2023-09-07T15:23:01;27.20;99.90
52187;DHT22;38161;53.020;6.598;2023-09-07T15:25:29;27.10;99.90
52187;DHT22;38161;53.020;6.598;2023-09-07T15:27:56;27.10;99.90
52187;DHT22;38161;53.020;6.598;2023-09-07T15:30:23;27.10;99.90